Time;durP1;ratioP1;P1;durP2;ratioP2;P2;SDS_P1;SDS_P2;PMS_P1;PMS_P2;Temp;Humidity;BMP_temperature;BMP_pressure;BME280_temperature;BME280_humidity;BME280_pressure;Samples;Min_cycle;Max_cycle;Signal;HPM_P1;HPM_P2
2022/02/01 00:00:13;;;;;;;30.75;6.53;;;;;;;;;;519988;28;1324;-77
2022/02/01 00:00:42;;;;;;;34.35;6.60;;;;;;;;;;519802;28;870;-77
2022/02/01 00:01:07;;;;;;;30.40;6.28;;;;;;;;;;519882;28;832;-77
2022/02/01 00:01:36;;;;;;;27.85;5.82;;;;;;;;;;520012;28;842;-77
2022/02/01 00:01:58;;;;;;;33.15;6.32;;;;;;;;;;520085;28;819;-77
2022/02/01 00:02:16;;;;;;;31.70;6.32;;;;;;;;;;521800;28;1297;-77
2022/02/01 00:02:50;;;;;;;30.58;6.32;;;;;;;;;;521505;28;796;-77
2022/02/01 00:03:05;;;;;;;32.85;6.32;;;;;;;;;;522115;28;784;-77
2022/02/01 00:03:21;;;;;;;29.23;5.87;;;;;;;;;;522233;28;812;-77
2022/02/01 00:03:39;;;;;;;28.15;5.57;;;;;;;;;;522358;28;808;-77
2022/02/01 00:04:00;;;;;;;29.58;6.15;;;;;;;;;;522223;28;1973;-78
2022/02/01 00:04:20;;;;;;;28.70;6.20;;;;;;;;;;520099;28;847;-77
2022/02/01 00:04:44;;;;;;;;;;;;;;;;;;;;;
2022/02/01 00:05:03;;;;;;;;;;;;;;;;;;;;;
2022/02/01 00:05:35;;;;;;;33.75;6.07;;;;;;;;;;520144;28;705;-77
2022/02/01 00:05:58;;;;;;;34.38;6.10;;;;;;;;;;519854;28;1279;-78
2022/02/01 00:06:28;;;;;;;33.25;5.80;;;;;;;;;;520094;28;796;-77
2022/02/01 00:06:56;;;;;;;28.23;5.68;;;;;;;;;;519759;28;855;-77
2022/02/01 00:08:02;;;;;;;24.10;5.10;;;;;;;;;;519781;28;855;-77
2022/02/01 00:08:35;;;;;;;31.65;5.65;;;;;;;;;;520031;28;832;-77
2022/02/01 00:09:06;;;;;;;28.15;5.40;;;;;;;;;;517617;28;1246;-77
2022/02/01 00:09:52;;;;;;;30.55;5.68;;;;;;;;;;517940;28;1278;-77
2022/02/01 00:10:54;;;;;;;;;;;;;;;;;;;;;
2022/02/01 00:12:17;;;;;;;30.27;5.38;;;;;;;;;;513723;28;1505;-77
2022/02/01 00:17:39;;;;;;;28.13;4.65;;;;;;;;;;513365;28;726;-77
2022/02/01 00:19:49;;;;;;;31.02;4.68;;;;;;;;;;513868;28;664;-77
2022/02/01 00:35:07;;;;;;;23.42;4.50;;;;;;;;;;520158;28;681;-74
2022/02/01 00:36:25;;;;;;;25.17;4.32;;;;;;;;;;519724;28;1228;-77
2022/02/01 00:36:30;;;;;;;26.83;4.50;;;;;;;;;;520048;28;844;-77
2022/02/01 00:36:49;;;;;;;25.52;4.50;;;;;;;;;;519512;28;2042;-77
2022/02/01 00:37:09;;;;;;;26.52;4.65;;;;;;;;;;517780;28;1379;-77
2022/02/01 00:37:26;;;;;;;25.05;4.80;;;;;;;;;;517869;28;872;-77
2022/02/01 00:37:55;;;;;;;26.38;4.57;;;;;;;;;;517888;28;820;-77
2022/02/01 00:38:46;;;;;;;24.30;4.65;;;;;;;;;;518694;28;650;-77
2022/02/01 00:39:06;;;;;;;26.25;4.15;;;;;;;;;;519564;28;897;-76
2022/02/01 00:39:29;;;;;;;26.35;4.68;;;;;;;;;;520878;28;1050;-77
2022/02/01 00:39:45;;;;;;;27.27;4.43;;;;;;;;;;519929;28;915;-77
2022/02/01 00:40:09;;;;;;;26.30;4.30;;;;;;;;;;518854;28;776;-77
2022/02/01 00:40:24;;;;;;;23.90;4.13;;;;;;;;;;520090;28;875;-77
2022/02/01 00:40:40;;;;;;;23.00;4.40;;;;;;;;;;520004;28;1320;-77
2022/02/01 00:41:02;;;;;;;25.13;4.63;;;;;;;;;;519030;28;1148;-77
2022/02/01 00:41:19;;;;;;;24.35;4.25;;;;;;;;;;519962;28;867;-77
2022/02/01 00:41:40;;;;;;;25.55;4.28;;;;;;;;;;517873;28;1255;-77
2022/02/01 00:41:55;;;;;;;27.42;4.80;;;;;;;;;;515880;28;1243;-77
2022/02/01 00:42:12;;;;;;;25.02;4.53;;;;;;;;;;515635;28;1181;-77
2022/02/01 00:42:28;;;;;;;23.83;4.50;;;;;;;;;;516224;28;780;-77
2022/02/01 00:42:43;;;;;;;24.47;4.53;;;;;;;;;;516369;28;785;-77
2022/02/01 00:42:59;;;;;;;25.15;4.53;;;;;;;;;;518141;28;824;-76
2022/02/01 00:43:14;;;;;;;24.67;4.55;;;;;;;;;;517921;28;943;-77
2022/02/01 00:43:30;;;;;;;24.07;4.20;;;;;;;;;;519479;28;945;-77
2022/02/01 00:43:46;;;;;;;26.33;4.35;;;;;;;;;;519510;28;942;-77
2022/02/01 00:44:02;;;;;;;25.83;4.68;;;;;;;;;;521026;28;1910;-77
2022/02/01 00:44:18;;;;;;;26.55;4.65;;;;;;;;;;521995;28;1268;-76
2022/02/01 00:44:33;;;;;;;27.25;4.47;;;;;;;;;;522386;28;788;-77
2022/02/01 00:44:48;;;;;;;25.33;4.50;;;;;;;;;;521710;28;1307;-77
2022/02/01 00:45:04;;;;;;;21.53;4.63;;;;;;;;;;522059;28;958;-77
2022/02/01 00:45:20;;;;;;;20.80;4.50;;;;;;;;;;522178;28;970;-77
2022/02/01 00:45:35;;;;;;;23.30;4.38;;;;;;;;;;520107;28;1246;-76
2022/02/01 00:45:51;;;;;;;24.60;4.57;;;;;;;;;;519891;28;772;-76
2022/02/01 00:46:06;;;;;;;25.58;4.75;;;;;;;;;;517832;28;1352;-76
2022/02/01 00:46:22;;;;;;;24.03;5.07;;;;;;;;;;515609;28;1125;-76
2022/02/01 00:46:37;;;;;;;22.67;4.65;;;;;;;;;;516383;28;979;-77
2022/02/01 00:46:52;;;;;;;23.83;4.30;;;;;;;;;;518136;28;859;-76
2022/02/01 00:47:08;;;;;;;22.20;4.17;;;;;;;;;;518243;28;974;-77
2022/02/01 00:47:23;;;;;;;22.67;4.30;;;;;;;;;;518367;28;1270;-77
2022/02/01 00:47:41;;;;;;;24.47;4.70;;;;;;;;;;518153;28;1299;-77
2022/02/01 00:47:57;;;;;;;25.70;4.68;;;;;;;;;;516609;28;1263;-76
2022/02/01 00:48:12;;;;;;;28.07;4.60;;;;;;;;;;515867;28;1310;-77
2022/02/01 00:48:29;;;;;;;26.90;4.63;;;;;;;;;;515831;28;868;-77
2022/02/01 00:48:44;;;;;;;24.08;4.43;;;;;;;;;;515920;28;1236;-76
2022/02/01 00:48:59;;;;;;;21.13;4.00;;;;;;;;;;515850;28;1189;-77
2022/02/01 00:49:15;;;;;;;22.53;4.00;;;;;;;;;;515707;28;1145;-77
2022/02/01 00:49:32;;;;;;;23.67;3.85;;;;;;;;;;516624;28;784;-77
2022/02/01 00:49:48;;;;;;;24.17;4.25;;;;;;;;;;518292;28;1311;-77
2022/02/01 00:50:04;;;;;;;24.88;4.38;;;;;;;;;;519834;28;724;-76
2022/02/01 00:50:19;;;;;;;25.40;4.22;;;;;;;;;;519903;28;1184;-77
2022/02/01 00:50:35;;;;;;;24.90;4.47;;;;;;;;;;520746;28;1142;-77
2022/02/01 00:50:50;;;;;;;20.50;4.07;;;;;;;;;;522025;28;911;-77
2022/02/01 00:51:10;;;;;;;23.50;4.10;;;;;;;;;;519713;28;1243;-76
2022/02/01 00:51:26;;;;;;;27.25;4.63;;;;;;;;;;519959;28;1399;-76
2022/02/01 00:51:41;;;;;;;24.03;4.40;;;;;;;;;;520014;28;1554;-77
2022/02/01 00:51:56;;;;;;;24.10;4.70;;;;;;;;;;519947;28;1231;-77
2022/02/01 00:52:12;;;;;;;23.83;4.90;;;;;;;;;;519344;28;788;-77
2022/02/01 00:52:28;;;;;;;23.97;4.87;;;;;;;;;;518664;28;1184;-77
2022/02/01 00:52:44;;;;;;;26.27;4.90;;;;;;;;;;519903;28;1394;-76
2022/02/01 00:52:59;;;;;;;23.83;4.63;;;;;;;;;;520098;28;815;-77
2022/02/01 00:53:15;;;;;;;20.77;4.27;;;;;;;;;;520041;28;810;-77
2022/02/01 00:53:32;;;;;;;23.63;4.70;;;;;;;;;;520726;28;721;-77
2022/02/01 00:53:47;;;;;;;26.25;4.82;;;;;;;;;;520229;28;1386;-77
2022/02/01 00:54:02;;;;;;;26.17;4.90;;;;;;;;;;521659;28;1112;-76
2022/02/01 00:54:18;;;;;;;24.27;5.37;;;;;;;;;;522884;28;994;-77
2022/02/01 00:54:33;;;;;;;26.47;5.17;;;;;;;;;;524007;28;776;-77
2022/02/01 00:54:48;;;;;;;29.05;5.00;;;;;;;;;;523551;28;1177;-77
2022/02/01 00:55:04;;;;;;;27.33;5.00;;;;;;;;;;524189;28;748;-77
2022/02/01 00:55:20;;;;;;;25.50;4.93;;;;;;;;;;524154;28;1494;-77
2022/02/01 00:55:35;;;;;;;24.83;5.00;;;;;;;;;;524225;28;828;-76
2022/02/01 00:55:50;;;;;;;25.83;5.00;;;;;;;;;;523804;28;1194;-77
2022/02/01 00:56:06;;;;;;;27.30;5.00;;;;;;;;;;524456;28;1266;-77
2022/02/01 00:56:22;;;;;;;25.48;4.80;;;;;;;;;;524596;28;882;-76
2022/02/01 00:56:37;;;;;;;21.87;4.47;;;;;;;;;;522050;28;1065;-77
2022/02/01 00:56:52;;;;;;;21.08;4.20;;;;;;;;;;522052;28;832;-76
2022/02/01 00:57:13;;;;;;;20.73;4.50;;;;;;;;;;522411;28;732;-77
2022/02/01 00:57:28;;;;;;;23.35;4.63;;;;;;;;;;522361;28;867;-77
2022/02/01 00:57:44;;;;;;;27.30;4.67;;;;;;;;;;520150;28;1176;-77
2022/02/01 00:57:59;;;;;;;25.40;4.70;;;;;;;;;;521148;28;1049;-76
2022/02/01 00:58:14;;;;;;;24.20;4.47;;;;;;;;;;522440;28;1006;-77
2022/02/01 00:58:29;;;;;;;25.17;4.57;;;;;;;;;;523107;28;919;-77
2022/02/01 00:58:45;;;;;;;25.23;4.70;;;;;;;;;;523914;28;935;-77
2022/02/01 00:59:00;;;;;;;25.42;4.75;;;;;;;;;;524306;28;752;-77
2022/02/01 00:59:16;;;;;;;25.23;4.90;;;;;;;;;;524352;28;966;-77
2022/02/01 00:59:31;;;;;;;22.77;4.72;;;;;;;;;;524212;28;788;-76
2022/02/01 00:59:46;;;;;;;23.53;4.40;;;;;;;;;;524218;28;752;-77
2022/02/01 01:00:07;;;;;;;25.17;4.37;;;;;;;;;;523871;28;1289;-77
2022/02/01 01:00:22;;;;;;;23.02;4.15;;;;;;;;;;522032;28;958;-77
2022/02/01 01:00:38;;;;;;;26.17;4.55;;;;;;;;;;522197;28;895;-77
2022/02/01 01:00:54;;;;;;;27.70;4.83;;;;;;;;;;521633;28;826;-78
2022/02/01 01:01:09;;;;;;;26.05;4.60;;;;;;;;;;519753;28;1423;-77
2022/02/01 01:01:25;;;;;;;22.50;4.30;;;;;;;;;;519818;28;1170;-77
2022/02/01 01:01:40;;;;;;;22.43;4.53;;;;;;;;;;520054;28;1284;-77
2022/02/01 01:01:55;;;;;;;24.67;4.50;;;;;;;;;;521302;28;1178;-77
2022/02/01 01:02:11;;;;;;;26.92;4.53;;;;;;;;;;522510;28;895;-77
2022/02/01 01:02:26;;;;;;;26.60;5.00;;;;;;;;;;522441;28;847;-76
2022/02/01 01:02:41;;;;;;;23.87;4.97;;;;;;;;;;520161;28;1336;-77
2022/02/01 01:02:57;;;;;;;24.05;4.90;;;;;;;;;;519709;28;1050;-77
2022/02/01 01:03:12;;;;;;;27.40;5.27;;;;;;;;;;520100;28;819;-77
2022/02/01 01:03:27;;;;;;;26.37;5.23;;;;;;;;;;520302;28;796;-77
2022/02/01 01:03:47;;;;;;;24.08;5.18;;;;;;;;;;520183;28;1129;-77
2022/02/01 01:04:02;;;;;;;26.63;5.07;;;;;;;;;;519752;28;1977;-77
2022/02/01 01:04:18;;;;;;;25.27;4.82;;;;;;;;;;519801;28;1318;-77
2022/02/01 01:04:33;;;;;;;23.93;4.67;;;;;;;;;;520835;28;1026;-77
2022/02/01 01:04:48;;;;;;;23.60;4.72;;;;;;;;;;519853;28;1177;-78
2022/02/01 01:05:05;;;;;;;22.40;4.80;;;;;;;;;;518231;28;1208;-77
2022/02/01 01:05:20;;;;;;;21.15;4.45;;;;;;;;;;518933;28;1225;-77
2022/02/01 01:05:36;;;;;;;22.23;4.40;;;;;;;;;;519876;28;943;-77
2022/02/01 01:05:53;;;;;;;24.07;4.70;;;;;;;;;;520388;28;926;-77
2022/02/01 01:06:08;;;;;;;26.17;5.05;;;;;;;;;;521156;28;638;-77
2022/02/01 01:06:25;;;;;;;26.13;4.87;;;;;;;;;;522495;28;951;-77
2022/02/01 01:06:40;;;;;;;24.75;4.68;;;;;;;;;;523244;28;816;-78
2022/02/01 01:06:55;;;;;;;25.70;4.77;;;;;;;;;;524644;28;807;-77
2022/02/01 01:07:11;;;;;;;25.43;4.60;;;;;;;;;;523232;28;1274;-78
2022/02/01 01:07:26;;;;;;;22.45;4.35;;;;;;;;;;524694;28;1175;-78
2022/02/01 01:07:42;;;;;;;24.07;4.13;;;;;;;;;;524902;28;1135;-77
2022/02/01 01:07:57;;;;;;;25.20;4.25;;;;;;;;;;524926;28;859;-77
2022/02/01 01:08:12;;;;;;;26.23;4.50;;;;;;;;;;524827;28;980;-78
2022/02/01 01:08:27;;;;;;;25.40;4.60;;;;;;;;;;524944;28;859;-77
2022/02/01 01:08:43;;;;;;;24.83;4.73;;;;;;;;;;524839;28;827;-77
2022/02/01 01:08:58;;;;;;;25.17;4.63;;;;;;;;;;522392;28;1381;-77
2022/02/01 01:09:14;;;;;;;24.17;4.60;;;;;;;;;;521831;28;955;-77
2022/02/01 01:09:30;;;;;;;23.00;4.45;;;;;;;;;;522965;28;819;-77
2022/02/01 01:09:45;;;;;;;21.08;4.57;;;;;;;;;;524409;28;855;-77
2022/02/01 01:10:02;;;;;;;21.53;4.77;;;;;;;;;;524388;28;951;-77
2022/02/01 01:10:18;;;;;;;20.70;4.55;;;;;;;;;;524803;28;792;-78
2022/02/01 01:10:34;;;;;;;22.95;4.90;;;;;;;;;;523051;28;1341;-77
2022/02/01 01:10:50;;;;;;;26.75;5.32;;;;;;;;;;520911;28;1222;-77
2022/02/01 01:11:05;;;;;;;29.23;5.35;;;;;;;;;;521623;28;951;-77
2022/02/01 01:11:21;;;;;;;29.27;5.33;;;;;;;;;;522117;28;836;-77
2022/02/01 01:11:36;;;;;;;24.55;5.13;;;;;;;;;;522710;28;812;-77
2022/02/01 01:11:55;;;;;;;22.40;5.00;;;;;;;;;;521372;28;745;-78
2022/02/01 01:12:12;;;;;;;23.38;4.97;;;;;;;;;;520710;28;848;-77
2022/02/01 01:12:30;;;;;;;22.38;4.68;;;;;;;;;;522165;28;851;-78
2022/02/01 01:12:56;;;;;;;24.58;4.80;;;;;;;;;;522526;28;873;-77
2022/02/01 01:13:38;;;;;;;;;;;;;;;;;;;;;
2022/02/01 01:15:01;;;;;;;23.50;4.93;;;;;;;;;;522653;28;835;-77
2022/02/01 01:15:28;;;;;;;19.50;4.50;;;;;;;;;;522765;28;807;-78
2022/02/01 01:15:54;;;;;;;21.92;4.63;;;;;;;;;;522340;28;1263;-78
2022/02/01 01:18:36;;;;;;;20.10;4.63;;;;;;;;;;522636;28;649;-77
2022/02/01 01:43:35;;;;;;;23.50;4.60;;;;;;;;;;522463;28;650;-78
2022/02/01 01:43:53;;;;;;;26.40;4.57;;;;;;;;;;522547;28;592;-77
2022/02/01 01:44:12;;;;;;;26.63;4.88;;;;;;;;;;522271;28;1910;-77
2022/02/01 01:44:37;;;;;;;23.42;5.00;;;;;;;;;;524454;28;1184;-77
2022/02/01 01:45:02;;;;;;;23.40;5.05;;;;;;;;;;523919;28;872;-77
2022/02/01 01:45:22;;;;;;;22.58;4.35;;;;;;;;;;522034;28;1457;-77
2022/02/01 01:46:04;;;;;;;;;;;;;;;;;;;;;
2022/02/01 01:46:31;;;;;;;20.55;3.92;;;;;;;;;;520152;28;1025;-77
2022/02/01 01:53:27;;;;;;;24.05;4.18;;;;;;;;;;524496;28;1056;-77
2022/02/01 01:53:42;;;;;;;22.60;4.10;;;;;;;;;;525087;28;913;-77
2022/02/01 01:54:01;;;;;;;21.53;3.97;;;;;;;;;;524824;28;1398;-78
2022/02/01 01:54:17;;;;;;;21.95;4.32;;;;;;;;;;523298;28;847;-78
2022/02/01 01:54:32;;;;;;;22.25;4.22;;;;;;;;;;521747;28;1342;-77
2022/02/01 01:54:47;;;;;;;20.17;4.00;;;;;;;;;;520770;28;1293;-78
2022/02/01 01:55:08;;;;;;;18.27;3.83;;;;;;;;;;520585;28;1407;-78
2022/02/01 01:55:23;;;;;;;19.55;3.80;;;;;;;;;;520142;28;1407;-78
2022/02/01 01:55:42;;;;;;;20.80;3.75;;;;;;;;;;518935;28;1497;-77
2022/02/01 01:55:57;;;;;;;22.90;4.13;;;;;;;;;;518448;28;1123;-77
2022/02/01 01:56:12;;;;;;;21.25;3.97;;;;;;;;;;518090;28;939;-77
2022/02/01 01:56:34;;;;;;;20.63;3.90;;;;;;;;;;518547;28;942;-78
2022/02/01 01:56:53;;;;;;;21.08;4.10;;;;;;;;;;519755;28;1053;-77
2022/02/01 01:57:08;;;;;;;19.85;4.03;;;;;;;;;;520166;28;875;-77
2022/02/01 01:57:24;;;;;;;18.90;4.10;;;;;;;;;;521121;28;1146;-77
2022/02/01 01:57:39;;;;;;;20.35;3.95;;;;;;;;;;518885;28;1153;-77
2022/02/01 01:57:55;;;;;;;20.83;3.77;;;;;;;;;;520785;28;1311;-77
2022/02/01 01:58:10;;;;;;;21.38;3.97;;;;;;;;;;520020;28;1166;-77
2022/02/01 01:58:26;;;;;;;23.80;4.23;;;;;;;;;;520725;28;772;-77
2022/02/01 01:58:41;;;;;;;21.85;4.25;;;;;;;;;;518453;28;1212;-77
2022/02/01 01:59:00;;;;;;;21.70;4.30;;;;;;;;;;516370;28;948;-77
2022/02/01 01:59:16;;;;;;;21.90;3.95;;;;;;;;;;517071;28;1421;-77
2022/02/01 01:59:33;;;;;;;19.45;3.95;;;;;;;;;;516729;28;1357;-77
2022/02/01 01:59:48;;;;;;;18.35;4.13;;;;;;;;;;516945;28;1083;-77
2022/02/01 02:00:07;;;;;;;20.13;3.97;;;;;;;;;;518648;28;1060;-78
2022/02/01 02:01:11;;;;;;;20.92;4.15;;;;;;;;;;518945;28;887;-77
2022/02/01 02:01:23;;;;;;;17.98;3.75;;;;;;;;;;520225;28;1091;-78
2022/02/01 02:01:40;;;;;;;16.10;3.63;;;;;;;;;;522839;28;859;-77
2022/02/01 02:01:56;;;;;;;22.13;4.05;;;;;;;;;;522429;28;1349;-78
2022/02/01 02:02:11;;;;;;;24.13;4.30;;;;;;;;;;522700;28;922;-77
2022/02/01 02:02:26;;;;;;;21.70;4.13;;;;;;;;;;522522;28;867;-77
2022/02/01 02:02:41;;;;;;;19.63;4.07;;;;;;;;;;521139;28;1405;-78
2022/02/01 02:02:57;;;;;;;17.83;3.85;;;;;;;;;;521158;28;1156;-78
2022/02/01 02:03:12;;;;;;;18.77;3.90;;;;;;;;;;519040;28;1161;-78
2022/02/01 02:03:28;;;;;;;20.63;4.32;;;;;;;;;;516115;28;1274;-77
2022/02/01 02:03:47;;;;;;;18.90;3.87;;;;;;;;;;516929;28;737;-77
2022/02/01 02:04:04;;;;;;;17.02;3.47;;;;;;;;;;518776;28;1942;-78
2022/02/01 02:04:19;;;;;;;22.15;3.70;;;;;;;;;;518685;28;906;-77
2022/02/01 02:04:34;;;;;;;22.43;3.63;;;;;;;;;;518707;28;789;-78
2022/02/01 02:04:50;;;;;;;20.83;3.70;;;;;;;;;;517083;28;1147;-78
2022/02/01 02:05:05;;;;;;;19.93;3.70;;;;;;;;;;519502;28;938;-77
2022/02/01 02:05:20;;;;;;;19.02;3.75;;;;;;;;;;522681;28;772;-78
2022/02/01 02:05:36;;;;;;;23.17;4.07;;;;;;;;;;520986;28;1375;-78
2022/02/01 02:05:51;;;;;;;23.40;4.00;;;;;;;;;;520501;28;1178;-78
2022/02/01 02:06:06;;;;;;;24.02;3.90;;;;;;;;;;518743;28;1351;-78
2022/02/01 02:06:22;;;;;;;25.00;3.70;;;;;;;;;;518290;28;1320;-79
2022/02/01 02:06:38;;;;;;;23.17;3.77;;;;;;;;;;519045;28;954;-78
2022/02/01 02:06:53;;;;;;;21.15;3.85;;;;;;;;;;521118;28;886;-78
2022/02/01 02:07:08;;;;;;;19.25;3.92;;;;;;;;;;520588;28;986;-78
2022/02/01 02:07:24;;;;;;;18.10;3.70;;;;;;;;;;520484;28;741;-78
2022/02/01 02:07:39;;;;;;;19.40;3.47;;;;;;;;;;520544;28;796;-78
2022/02/01 02:07:54;;;;;;;19.95;3.45;;;;;;;;;;521541;28;1204;-78
2022/02/01 02:08:11;;;;;;;19.27;3.47;;;;;;;;;;522214;28;950;-78
2022/02/01 02:08:29;;;;;;;18.73;3.72;;;;;;;;;;523114;28;875;-78
2022/02/01 02:08:48;;;;;;;19.33;4.00;;;;;;;;;;522929;28;796;-78
2022/02/01 02:09:07;;;;;;;19.50;4.20;;;;;;;;;;522946;28;847;-77
2022/02/01 02:09:23;;;;;;;20.13;4.05;;;;;;;;;;522746;28;972;-77
2022/02/01 02:09:38;;;;;;;23.63;4.00;;;;;;;;;;520377;28;1200;-77
2022/02/01 02:09:53;;;;;;;24.52;4.07;;;;;;;;;;520038;28;1179;-78
2022/02/01 02:10:08;;;;;;;21.73;4.00;;;;;;;;;;521091;28;847;-78
2022/02/01 02:10:31;;;;;;;21.67;3.83;;;;;;;;;;520816;28;1268;-77
2022/02/01 02:10:56;;;;;;;16.80;3.83;;;;;;;;;;521761;28;752;-78
2022/02/01 02:11:23;;;;;;;18.55;3.67;;;;;;;;;;520970;28;887;-78
2022/02/01 02:12:58;;;;;;;22.50;3.80;;;;;;;;;;514629;28;666;-78
2022/02/01 02:14:23;;;;;;;20.60;3.60;;;;;;;;;;514578;28;664;-78
2022/02/01 02:14:48;;;;;;;20.25;3.58;;;;;;;;;;514403;28;850;-77
2022/02/01 02:15:04;;;;;;;22.58;3.75;;;;;;;;;;514260;28;805;-77
2022/02/01 02:15:32;;;;;;;23.30;3.97;;;;;;;;;;514679;28;921;-77
2022/02/01 02:16:00;;;;;;;18.58;3.60;;;;;;;;;;514293;28;1076;-77
2022/02/01 02:16:15;;;;;;;18.88;3.70;;;;;;;;;;514082;28;884;-77
2022/02/01 02:16:31;;;;;;;20.02;3.45;;;;;;;;;;513747;28;864;-76
2022/02/01 02:16:50;;;;;;;22.90;3.30;;;;;;;;;;514621;28;736;-77
2022/02/01 02:17:06;;;;;;;18.70;3.30;;;;;;;;;;514492;28;797;-77
2022/02/01 02:17:21;;;;;;;16.50;3.40;;;;;;;;;;514461;28;741;-78
2022/02/01 02:17:36;;;;;;;17.20;3.47;;;;;;;;;;514342;28;956;-77
2022/02/01 02:17:51;;;;;;;17.20;3.75;;;;;;;;;;512185;29;1071;-77
2022/02/01 02:18:07;;;;;;;15.47;3.80;;;;;;;;;;510332;29;1266;-77
2022/02/01 02:18:23;;;;;;;20.27;3.90;;;;;;;;;;510899;29;836;-77
2022/02/01 02:18:38;;;;;;;21.88;3.70;;;;;;;;;;517869;28;1201;-77
2022/02/01 02:18:53;;;;;;;20.02;3.33;;;;;;;;;;518367;28;1141;-77
2022/02/01 02:19:10;;;;;;;19.30;3.40;;;;;;;;;;516415;28;1153;-78
2022/02/01 02:19:29;;;;;;;18.38;3.15;;;;;;;;;;516779;28;1255;-78
2022/02/01 02:19:44;;;;;;;18.42;3.38;;;;;;;;;;517223;28;995;-77
2022/02/01 02:20:00;;;;;;;18.53;3.60;;;;;;;;;;516664;28;1180;-78
2022/02/01 02:20:15;;;;;;;18.37;3.40;;;;;;;;;;518920;28;812;-78
2022/02/01 02:20:50;;;;;;;19.35;3.40;;;;;;;;;;515316;28;871;-77
2022/02/01 02:21:05;;;;;;;18.30;3.60;;;;;;;;;;521500;28;878;-77
2022/02/01 02:21:21;;;;;;;18.77;3.40;;;;;;;;;;523129;28;752;-77
2022/02/01 02:21:38;;;;;;;18.58;3.20;;;;;;;;;;520788;28;1358;-77
2022/02/01 02:21:59;;;;;;;18.63;3.28;;;;;;;;;;519899;28;1375;-78
2022/02/01 02:22:15;;;;;;;19.27;3.50;;;;;;;;;;518457;28;1462;-78
2022/02/01 02:22:30;;;;;;;17.33;3.40;;;;;;;;;;516604;28;1137;-77
2022/02/01 02:22:45;;;;;;;17.47;3.23;;;;;;;;;;516797;28;788;-77
2022/02/01 02:23:00;;;;;;;19.83;3.20;;;;;;;;;;517086;28;935;-78
2022/02/01 02:23:16;;;;;;;19.77;3.30;;;;;;;;;;514633;28;1297;-78
2022/02/01 02:23:32;;;;;;;20.23;3.53;;;;;;;;;;516527;28;1341;-78
2022/02/01 02:23:48;;;;;;;19.73;3.67;;;;;;;;;;518286;28;772;-77
2022/02/01 02:24:03;;;;;;;19.73;4.15;;;;;;;;;;517078;28;1914;-77
2022/02/01 02:24:20;;;;;;;19.77;3.77;;;;;;;;;;518670;28;757;-78
2022/02/01 02:24:42;;;;;;;19.60;3.35;;;;;;;;;;516360;28;1352;-78
2022/02/01 02:24:57;;;;;;;23.98;3.85;;;;;;;;;;516022;28;851;-77
2022/02/01 02:25:12;;;;;;;21.40;3.67;;;;;;;;;;516482;28;923;-78
2022/02/01 02:25:28;;;;;;;19.65;3.45;;;;;;;;;;518065;28;840;-77
2022/02/01 02:25:43;;;;;;;18.80;3.43;;;;;;;;;;518767;28;932;-78
2022/02/01 02:26:01;;;;;;;18.95;3.42;;;;;;;;;;520390;28;733;-78
2022/02/01 02:26:17;;;;;;;19.75;3.63;;;;;;;;;;521101;28;863;-78
2022/02/01 02:26:33;;;;;;;18.77;3.30;;;;;;;;;;521281;28;875;-77
2022/02/01 02:26:50;;;;;;;18.57;3.20;;;;;;;;;;521126;28;1316;-78
2022/02/01 02:27:05;;;;;;;18.13;3.40;;;;;;;;;;520829;28;820;-78
2022/02/01 02:27:20;;;;;;;17.03;3.30;;;;;;;;;;521030;28;864;-77
2022/02/01 02:27:36;;;;;;;15.80;3.10;;;;;;;;;;520573;28;867;-77
2022/02/01 02:27:51;;;;;;;18.40;3.33;;;;;;;;;;518770;28;1268;-77
2022/02/01 02:28:10;;;;;;;21.05;3.50;;;;;;;;;;518646;28;1276;-78
2022/02/01 02:28:25;;;;;;;21.77;3.70;;;;;;;;;;520384;28;824;-78
2022/02/01 02:28:41;;;;;;;21.35;3.50;;;;;;;;;;521490;28;781;-78
2022/02/01 02:28:58;;;;;;;16.93;3.10;;;;;;;;;;521299;28;1400;-77
2022/02/01 02:29:14;;;;;;;17.48;3.08;;;;;;;;;;520729;28;1271;-77
2022/02/01 02:29:30;;;;;;;19.02;3.15;;;;;;;;;;521005;28;800;-77
2022/02/01 02:29:45;;;;;;;19.30;3.30;;;;;;;;;;520679;28;816;-77
2022/02/01 02:30:01;;;;;;;21.15;3.53;;;;;;;;;;521459;28;963;-77
2022/02/01 02:30:17;;;;;;;20.33;3.67;;;;;;;;;;523100;28;831;-77
2022/02/01 02:30:33;;;;;;;19.15;3.75;;;;;;;;;;522787;28;732;-77
2022/02/01 02:30:51;;;;;;;19.77;3.70;;;;;;;;;;523210;28;760;-77
2022/02/01 02:31:07;;;;;;;19.63;3.38;;;;;;;;;;522999;28;796;-77
2022/02/01 02:31:23;;;;;;;17.63;3.20;;;;;;;;;;523024;28;823;-77
2022/02/01 02:31:39;;;;;;;15.73;3.23;;;;;;;;;;523499;28;1025;-77
2022/02/01 02:31:55;;;;;;;18.25;3.47;;;;;;;;;;522409;28;953;-77
2022/02/01 02:32:11;;;;;;;18.30;3.45;;;;;;;;;;521109;28;804;-77
2022/02/01 02:32:26;;;;;;;16.83;3.43;;;;;;;;;;520288;28;1156;-77
2022/02/01 02:32:41;;;;;;;18.67;3.40;;;;;;;;;;522739;28;872;-77
2022/02/01 02:33:12;;;;;;;22.50;3.50;;;;;;;;;;523031;28;1009;-77
2022/02/01 02:33:28;;;;;;;21.42;3.55;;;;;;;;;;521044;28;1369;-78
2022/02/01 02:33:43;;;;;;;20.60;3.57;;;;;;;;;;518815;28;1188;-77
2022/02/01 02:34:03;;;;;;;19.95;3.45;;;;;;;;;;518774;28;875;-78
2022/02/01 02:34:19;;;;;;;18.65;3.47;;;;;;;;;;518882;28;1238;-78
2022/02/01 02:34:34;;;;;;;18.70;3.58;;;;;;;;;;518326;28;840;-78
2022/02/01 02:34:50;;;;;;;17.40;3.47;;;;;;;;;;516119;28;1157;-77
2022/02/01 02:35:06;;;;;;;18.35;3.40;;;;;;;;;;516660;28;902;-77
2022/02/01 02:35:21;;;;;;;20.38;3.53;;;;;;;;;;516602;28;1290;-77
2022/02/01 02:35:48;;;;;;;20.57;3.63;;;;;;;;;;517677;28;800;-78
2022/02/01 02:36:24;;;;;;;18.38;3.30;;;;;;;;;;518699;28;871;-77
2022/02/01 02:36:47;;;;;;;21.25;3.47;;;;;;;;;;520685;28;1475;-78
2022/02/01 02:37:11;;;;;;;19.83;3.30;;;;;;;;;;522814;28;881;-78
2022/02/01 02:37:30;;;;;;;17.83;3.30;;;;;;;;;;523006;28;816;-77
2022/02/01 02:37:46;;;;;;;18.55;3.28;;;;;;;;;;523026;28;717;-77
2022/02/01 02:38:11;;;;;;;18.75;3.20;;;;;;;;;;522770;28;1229;-77
2022/02/01 02:38:37;;;;;;;19.23;3.28;;;;;;;;;;523000;28;851;-77
2022/02/01 02:39:00;;;;;;;19.40;3.28;;;;;;;;;;521889;28;961;-77
2022/02/01 02:39:26;;;;;;;16.70;3.03;;;;;;;;;;519333;28;1177;-77
2022/02/01 02:40:08;;;;;;;20.48;3.30;;;;;;;;;;520685;28;903;-77
2022/02/01 02:40:44;;;;;;;16.98;2.80;;;;;;;;;;520847;28;1283;-77
2022/02/01 02:41:28;;;;;;;18.73;3.38;;;;;;;;;;520653;28;1041;-77
2022/02/01 02:41:48;;;;;;;18.67;2.80;;;;;;;;;;519087;28;1365;-77
2022/02/01 02:42:15;;;;;;;17.13;2.95;;;;;;;;;;521526;28;882;-78
2022/02/01 02:45:04;;;;;;;17.20;3.17;;;;;;;;;;521300;28;855;-77
2022/02/01 02:45:13;;;;;;;18.38;2.90;;;;;;;;;;521014;28;719;-78
2022/02/01 02:45:28;;;;;;;18.92;3.10;;;;;;;;;;521826;28;928;-78
2022/02/01 02:45:43;;;;;;;17.20;3.23;;;;;;;;;;521097;28;828;-78
2022/02/01 02:45:59;;;;;;;17.33;3.33;;;;;;;;;;521205;28;1180;-77
2022/02/01 02:46:21;;;;;;;16.38;3.40;;;;;;;;;;521169;28;950;-77
2022/02/01 02:46:38;;;;;;;16.77;2.92;;;;;;;;;;521528;28;978;-77
2022/02/01 02:46:53;;;;;;;19.05;3.05;;;;;;;;;;521296;28;785;-78
2022/02/01 02:47:09;;;;;;;17.57;3.10;;;;;;;;;;521424;28;721;-78
2022/02/01 02:47:24;;;;;;;16.40;3.40;;;;;;;;;;521532;28;816;-78
2022/02/01 02:47:40;;;;;;;16.70;3.53;;;;;;;;;;521212;28;1212;-78
2022/02/01 02:47:55;;;;;;;16.35;3.30;;;;;;;;;;521368;28;803;-78
2022/02/01 02:48:12;;;;;;;16.03;3.33;;;;;;;;;;521161;28;986;-78
2022/02/01 02:48:28;;;;;;;19.00;3.40;;;;;;;;;;520808;28;833;-78
2022/02/01 02:48:43;;;;;;;20.42;3.33;;;;;;;;;;520564;28;1002;-78
2022/02/01 02:48:59;;;;;;;18.87;3.20;;;;;;;;;;518631;28;1163;-77
2022/02/01 02:49:16;;;;;;;16.65;2.92;;;;;;;;;;516094;28;1379;-77
2022/02/01 02:49:32;;;;;;;16.42;2.97;;;;;;;;;;517640;28;1029;-78
2022/02/01 02:49:47;;;;;;;17.95;3.50;;;;;;;;;;519919;28;818;-78
2022/02/01 02:50:04;;;;;;;19.27;3.63;;;;;;;;;;521080;28;844;-77
2022/02/01 02:50:22;;;;;;;21.10;3.22;;;;;;;;;;519098;28;1391;-78
2022/02/01 02:50:37;;;;;;;17.95;2.90;;;;;;;;;;519102;28;916;-78
2022/02/01 02:50:53;;;;;;;17.67;3.10;;;;;;;;;;518017;28;1188;-78
2022/02/01 02:51:08;;;;;;;18.13;3.17;;;;;;;;;;519949;28;966;-78
2022/02/01 02:51:24;;;;;;;17.63;3.07;;;;;;;;;;520603;28;918;-78
2022/02/01 02:51:39;;;;;;;18.30;3.13;;;;;;;;;;520780;28;784;-79
2022/02/01 02:51:55;;;;;;;17.23;3.15;;;;;;;;;;520745;28;1212;-78
2022/02/01 02:52:10;;;;;;;16.90;2.90;;;;;;;;;;519338;28;1243;-78
2022/02/01 02:52:26;;;;;;;18.03;3.10;;;;;;;;;;521567;28;988;-78
2022/02/01 02:52:41;;;;;;;21.65;3.53;;;;;;;;;;518067;28;1293;-77
2022/02/01 02:52:57;;;;;;;20.10;3.20;;;;;;;;;;517846;28;953;-78
2022/02/01 02:53:12;;;;;;;19.33;3.10;;;;;;;;;;513965;28;1301;-78
2022/02/01 02:53:27;;;;;;;20.07;3.17;;;;;;;;;;515860;28;1053;-77
2022/02/01 02:53:42;;;;;;;17.02;3.03;;;;;;;;;;516883;28;800;-78
2022/02/01 02:53:58;;;;;;;17.53;3.17;;;;;;;;;;519326;28;1231;-77
2022/02/01 02:54:16;;;;;;;19.63;3.13;;;;;;;;;;522644;28;836;-78
2022/02/01 02:54:31;;;;;;;18.90;3.08;;;;;;;;;;523435;28;1002;-78
2022/02/01 02:54:46;;;;;;;17.23;2.97;;;;;;;;;;524131;28;823;-78
2022/02/01 02:55:02;;;;;;;15.67;3.00;;;;;;;;;;525250;28;947;-78
2022/02/01 02:55:18;;;;;;;17.08;3.28;;;;;;;;;;525110;28;1197;-78
2022/02/01 02:55:33;;;;;;;17.17;3.23;;;;;;;;;;524666;28;942;-77
2022/02/01 02:55:49;;;;;;;17.27;3.28;;;;;;;;;;522771;28;1469;-78
2022/02/01 02:56:07;;;;;;;18.03;3.30;;;;;;;;;;522752;28;843;-77